sensor_id;sensor_type;location;lat;lon;timestamp;pressure;altitude;pressure_sealevel;temperature;humidity
44734;BME280;30462;52.446;-1.930;2022-08-06T00:00:18;101460.5625;;;;
44734;BME280;30462;52.446;-1.930;2022-08-06T00:01:18;101459.5703;;;;
44734;BME280;30462;52.446;-1.930;2022-08-06T00:02:19;101456.4531;;;;
44734;BME280;30462;52.446;-1.930;2022-08-06T00:03:18;101458.8125;;;;
44734;BME280;30462;52.446;-1.930;2022-08-06T00:04:18;101458.2148;;;;
44734;BME280;30462;52.446;-1.930;2022-08-06T00:05:18;101458.1914;;;;
44734;BME280;30462;52.446;-1.930;2022-08-06T00:06:18;101462.6445;;;;
44734;BME280;30462;52.446;-1.930;2022-08-06T00:07:17;101459.2539;;;;
44734;BME280;30462;52.446;-1.930;2022-08-06T00:08:18;101459.4258;;;;
44734;BME280;30462;52.446;-1.930;2022-08-06T00:09:17;101462.7422;;;;
44734;BME280;30462;52.446;-1.930;2022-08-06T00:10:18;101461.7344;;;;
44734;BME280;30462;52.446;-1.930;2022-08-06T00:11:18;101463.4531;;;;
44734;BME280;30462;52.446;-1.930;2022-08-06T00:12:17;101462.5156;;;;
44734;BME280;30462;52.446;-1.930;2022-08-06T00:13:18;101463.9531;;;;
44734;BME280;30462;52.446;-1.930;2022-08-06T00:14:18;101466.0664;;;;
44734;BME280;30462;52.446;-1.930;2022-08-06T00:15:18;101464.0273;;;;
44734;BME280;30462;52.446;-1.930;2022-08-06T00:16:17;101460.4609;;;;
44734;BME280;30462;52.446;-1.930;2022-08-06T00:17:18;101460.5664;;;;
44734;BME280;30462;52.446;-1.930;2022-08-06T00:18:18;101456.7031;;;;
44734;BME280;30462;52.446;-1.930;2022-08-06T00:19:17;101457.3906;;;;
44734;BME280;30462;52.446;-1.930;2022-08-06T00:20:18;101460.4141;;;;
44734;BME280;30462;52.446;-1.930;2022-08-06T00:21:18;101457.6094;;;;
44734;BME280;30462;52.446;-1.930;2022-08-06T00:22:18;101456.1367;;;;
44734;BME280;30462;52.446;-1.930;2022-08-06T00:23:18;101455.3047;;;;
44734;BME280;30462;52.446;-1.930;2022-08-06T00:24:19;101456.9609;;;;
44734;BME280;30462;52.446;-1.930;2022-08-06T00:25:17;101454.1523;;;;
44734;BME280;30462;52.446;-1.930;2022-08-06T00:26:18;101456.3359;;;;
44734;BME280;30462;52.446;-1.930;2022-08-06T00:27:18;101456.543;;;;
44734;BME280;30462;52.446;-1.930;2022-08-06T00:28:17;101458.2422;;;;
44734;BME280;30462;52.446;-1.930;2022-08-06T00:29:18;101459.9102;;;;
44734;BME280;30462;52.446;-1.930;2022-08-06T00:30:18;101460.1445;;;;
44734;BME280;30462;52.446;-1.930;2022-08-06T00:31:18;101460.7109;;;;
44734;BME280;30462;52.446;-1.930;2022-08-06T00:32:18;101463.3516;;;;
44734;BME280;30462;52.446;-1.930;2022-08-06T00:33:18;101460.8672;;;;
44734;BME280;30462;52.446;-1.930;2022-08-06T00:34:18;101464.2422;;;;
44734;BME280;30462;52.446;-1.930;2022-08-06T00:35:18;101466.2656;;;;
44734;BME280;30462;52.446;-1.930;2022-08-06T00:36:18;101464.3555;;;;
44734;BME280;30462;52.446;-1.930;2022-08-06T00:37:18;101466.4063;;;;
44734;BME280;30462;52.446;-1.930;2022-08-06T00:38:18;101466.0156;;;;
44734;BME280;30462;52.446;-1.930;2022-08-06T00:39:18;101463.5859;;;;
44734;BME280;30462;52.446;-1.930;2022-08-06T00:40:18;101464.457;;;;
44734;BME280;30462;52.446;-1.930;2022-08-06T00:41:18;101463.9219;;;;
44734;BME280;30462;52.446;-1.930;2022-08-06T00:42:18;101462.1211;;;;
44734;BME280;30462;52.446;-1.930;2022-08-06T00:43:18;101466.0781;;;;
44734;BME280;30462;52.446;-1.930;2022-08-06T00:44:18;101464.1602;;;;
44734;BME280;30462;52.446;-1.930;2022-08-06T00:45:17;101464.8242;;;;
44734;BME280;30462;52.446;-1.930;2022-08-06T00:46:18;101462.5547;;;;
44734;BME280;30462;52.446;-1.930;2022-08-06T00:47:18;101462.8984;;;;
44734;BME280;30462;52.446;-1.930;2022-08-06T00:48:18;101459.6758;;;;
44734;BME280;30462;52.446;-1.930;2022-08-06T00:49:18;101463.7031;;;;
44734;BME280;30462;52.446;-1.930;2022-08-06T00:50:18;101461.4453;;;;
44734;BME280;30462;52.446;-1.930;2022-08-06T00:51:18;101463.5977;;;;
44734;BME280;30462;52.446;-1.930;2022-08-06T00:52:18;101459.1172;;;;
44734;BME280;30462;52.446;-1.930;2022-08-06T00:53:18;101462.1289;;;;
44734;BME280;30462;52.446;-1.930;2022-08-06T00:54:18;101462.3945;;;;
44734;BME280;30462;52.446;-1.930;2022-08-06T00:55:17;101461.2695;;;;
44734;BME280;30462;52.446;-1.930;2022-08-06T00:56:18;101459.2461;;;;
44734;BME280;30462;52.446;-1.930;2022-08-06T00:57:18;101459.8945;;;;
44734;BME280;30462;52.446;-1.930;2022-08-06T00:58:18;101460.3438;;;;
44734;BME280;30462;52.446;-1.930;2022-08-06T00:59:18;101458.5156;;;;
44734;BME280;30462;52.446;-1.930;2022-08-06T01:00:18;101459.8867;;;;
44734;BME280;30462;52.446;-1.930;2022-08-06T01:01:18;101463.6758;;;;
44734;BME280;30462;52.446;-1.930;2022-08-06T01:02:18;101465.793;;;;
44734;BME280;30462;52.446;-1.930;2022-08-06T01:03:18;101462.8984;;;;
44734;BME280;30462;52.446;-1.930;2022-08-06T01:04:18;101465.5781;;;;
44734;BME280;30462;52.446;-1.930;2022-08-06T01:05:18;101466.5938;;;;
44734;BME280;30462;52.446;-1.930;2022-08-06T01:06:18;101470.1875;;;;
44734;BME280;30462;52.446;-1.930;2022-08-06T01:07:18;101467.8672;;;;
44734;BME280;30462;52.446;-1.930;2022-08-06T01:08:18;101472.7617;;;;
44734;BME280;30462;52.446;-1.930;2022-08-06T01:09:19;101472.0508;;;;
44734;BME280;30462;52.446;-1.930;2022-08-06T01:10:18;101473.0039;;;;
44734;BME280;30462;52.446;-1.930;2022-08-06T01:11:18;101468.1602;;;;
44734;BME280;30462;52.446;-1.930;2022-08-06T01:12:18;101469.7578;;;;
44734;BME280;30462;52.446;-1.930;2022-08-06T01:13:18;101473.3164;;;;
44734;BME280;30462;52.446;-1.930;2022-08-06T01:14:18;101469.9531;;;;
44734;BME280;30462;52.446;-1.930;2022-08-06T01:15:18;101471.6016;;;;
44734;BME280;30462;52.446;-1.930;2022-08-06T01:16:23;101475.3672;;;;
44734;BME280;30462;52.446;-1.930;2022-08-06T01:17:19;101474.6094;;;;
44734;BME280;30462;52.446;-1.930;2022-08-06T01:18:21;101474.8203;;;;
44734;BME280;30462;52.446;-1.930;2022-08-06T01:19:26;101474.6445;;;;
44734;BME280;30462;52.446;-1.930;2022-08-06T01:20:20;101473.5703;;;;
44734;BME280;30462;52.446;-1.930;2022-08-06T01:21:28;101471.8711;;;;
44734;BME280;30462;52.446;-1.930;2022-08-06T01:23:22;101473.5313;;;;
44734;BME280;30462;52.446;-1.930;2022-08-06T01:24:25;101472.6992;;;;
44734;BME280;30462;52.446;-1.930;2022-08-06T01:28:20;101470.6602;;;;
44734;BME280;30462;52.446;-1.930;2022-08-06T01:29:21;101469.1406;;;;
44734;BME280;30462;52.446;-1.930;2022-08-06T01:30:19;101468.3438;;;;
44734;BME280;30462;52.446;-1.930;2022-08-06T01:31:20;101468.293;;;;
44734;BME280;30462;52.446;-1.930;2022-08-06T01:32:23;101471.2617;;;;
44734;BME280;30462;52.446;-1.930;2022-08-06T01:33:20;101470.5234;;;;
44734;BME280;30462;52.446;-1.930;2022-08-06T01:34:20;101472.6445;;;;
44734;BME280;30462;52.446;-1.930;2022-08-06T01:35:23;101471.6406;;;;
44734;BME280;30462;52.446;-1.930;2022-08-06T01:36:19;101472.7578;;;;
44734;BME280;30462;52.446;-1.930;2022-08-06T01:37:20;101472.25;;;;
44734;BME280;30462;52.446;-1.930;2022-08-06T01:38:20;101472.9102;;;;
44734;BME280;30462;52.446;-1.930;2022-08-06T01:39:18;101473.2148;;;;
44734;BME280;30462;52.446;-1.930;2022-08-06T01:40:21;101470.5234;;;;
44734;BME280;30462;52.446;-1.930;2022-08-06T01:41:19;101471.7305;;;;
44734;BME280;30462;52.446;-1.930;2022-08-06T01:42:18;101473.8867;;;;
44734;BME280;30462;52.446;-1.930;2022-08-06T01:43:19;101474.8086;;;;
44734;BME280;30462;52.446;-1.930;2022-08-06T01:44:19;101478.6445;;;;
44734;BME280;30462;52.446;-1.930;2022-08-06T01:45:18;101480.1094;;;;
44734;BME280;30462;52.446;-1.930;2022-08-06T01:46:18;101481.5;;;;
44734;BME280;30462;52.446;-1.930;2022-08-06T01:47:18;101487.0625;;;;
44734;BME280;30462;52.446;-1.930;2022-08-06T01:48:19;101482.1719;;;;
44734;BME280;30462;52.446;-1.930;2022-08-06T01:49:19;101485.2422;;;;
44734;BME280;30462;52.446;-1.930;2022-08-06T01:50:19;101488.832;;;;
44734;BME280;30462;52.446;-1.930;2022-08-06T01:51:18;101484.918;;;;
44734;BME280;30462;52.446;-1.930;2022-08-06T01:52:18;101483.0039;;;;
44734;BME280;30462;52.446;-1.930;2022-08-06T01:53:19;101483.6914;;;;
44734;BME280;30462;52.446;-1.930;2022-08-06T01:54:18;101482.5391;;;;
44734;BME280;30462;52.446;-1.930;2022-08-06T01:55:18;101482.5547;;;;
44734;BME280;30462;52.446;-1.930;2022-08-06T01:56:18;101481.8164;;;;
44734;BME280;30462;52.446;-1.930;2022-08-06T01:57:18;101484.4922;;;;
44734;BME280;30462;52.446;-1.930;2022-08-06T01:58:21;101481.5781;;;;
44734;BME280;30462;52.446;-1.930;2022-08-06T01:59:19;101481.0195;;;;
44734;BME280;30462;52.446;-1.930;2022-08-06T02:00:18;101485.0898;;;;
44734;BME280;30462;52.446;-1.930;2022-08-06T02:01:18;101483.457;;;;
44734;BME280;30462;52.446;-1.930;2022-08-06T02:02:20;101481.8398;;;;
44734;BME280;30462;52.446;-1.930;2022-08-06T02:03:19;101481.7461;;;;
44734;BME280;30462;52.446;-1.930;2022-08-06T02:04:18;101476.9492;;;;
44734;BME280;30462;52.446;-1.930;2022-08-06T02:05:19;101477.0977;;;;
44734;BME280;30462;52.446;-1.930;2022-08-06T02:06:20;101477.1484;;;;
44734;BME280;30462;52.446;-1.930;2022-08-06T02:07:19;101475.832;;;;
44734;BME280;30462;52.446;-1.930;2022-08-06T02:08:21;101473.0508;;;;
44734;BME280;30462;52.446;-1.930;2022-08-06T02:09:24;101473.0508;;;;
44734;BME280;30462;52.446;-1.930;2022-08-06T02:10:19;101470.9648;;;;
44734;BME280;30462;52.446;-1.930;2022-08-06T02:11:18;101471.2734;;;;
44734;BME280;30462;52.446;-1.930;2022-08-06T02:12:22;101475.7148;;;;
44734;BME280;30462;52.446;-1.930;2022-08-06T02:13:19;101475.293;;;;
44734;BME280;30462;52.446;-1.930;2022-08-06T02:14:18;101474.5547;;;;
44734;BME280;30462;52.446;-1.930;2022-08-06T02:15:19;101476.7852;;;;
44734;BME280;30462;52.446;-1.930;2022-08-06T02:16:17;101481.0625;;;;
44734;BME280;30462;52.446;-1.930;2022-08-06T02:17:18;101478.3789;;;;
44734;BME280;30462;52.446;-1.930;2022-08-06T02:18:18;101479.3008;;;;
44734;BME280;30462;52.446;-1.930;2022-08-06T02:19:18;101481.9063;;;;
44734;BME280;30462;52.446;-1.930;2022-08-06T02:20:21;101477.3125;;;;
44734;BME280;30462;52.446;-1.930;2022-08-06T02:21:22;101475.7148;;;;
44734;BME280;30462;52.446;-1.930;2022-08-06T02:22:18;101475.5859;;;;
44734;BME280;30462;52.446;-1.930;2022-08-06T02:23:19;101476.3594;;;;
44734;BME280;30462;52.446;-1.930;2022-08-06T02:24:18;101476.8203;;;;
44734;BME280;30462;52.446;-1.930;2022-08-06T02:25:18;101476.8047;;;;
44734;BME280;30462;52.446;-1.930;2022-08-06T02:26:18;101477.0039;;;;
44734;BME280;30462;52.446;-1.930;2022-08-06T02:27:18;101475.668;;;;
44734;BME280;30462;52.446;-1.930;2022-08-06T02:28:19;101479.9648;;;;
44734;BME280;30462;52.446;-1.930;2022-08-06T02:29:18;101477.0703;;;;
44734;BME280;30462;52.446;-1.930;2022-08-06T02:30:18;101477.332;;;;
44734;BME280;30462;52.446;-1.930;2022-08-06T02:31:17;101476.457;;;;
44734;BME280;30462;52.446;-1.930;2022-08-06T02:32:18;101478.6641;;;;
44734;BME280;30462;52.446;-1.930;2022-08-06T02:33:18;101478.0547;;;;
44734;BME280;30462;52.446;-1.930;2022-08-06T02:34:18;101474.3867;;;;
44734;BME280;30462;52.446;-1.930;2022-08-06T02:35:18;101479.8633;;;;
44734;BME280;30462;52.446;-1.930;2022-08-06T02:36:19;101477.9102;;;;
44734;BME280;30462;52.446;-1.930;2022-08-06T02:37:24;101482.168;;;;
44734;BME280;30462;52.446;-1.930;2022-08-06T02:38:22;101482.8242;;;;
44734;BME280;30462;52.446;-1.930;2022-08-06T02:39:19;101483.9727;;;;
44734;BME280;30462;52.446;-1.930;2022-08-06T02:40:19;101480.4375;;;;
44734;BME280;30462;52.446;-1.930;2022-08-06T02:41:21;101484.8281;;;;
44734;BME280;30462;52.446;-1.930;2022-08-06T02:42:20;101484.9141;;;;
44734;BME280;30462;52.446;-1.930;2022-08-06T02:43:22;101487.918;;;;
44734;BME280;30462;52.446;-1.930;2022-08-06T02:44:19;101484.3047;;;;
44734;BME280;30462;52.446;-1.930;2022-08-06T02:45:19;101486.7852;;;;
44734;BME280;30462;52.446;-1.930;2022-08-06T02:46:21;101486.5234;;;;
44734;BME280;30462;52.446;-1.930;2022-08-06T02:47:20;101490.7891;;;;
44734;BME280;30462;52.446;-1.930;2022-08-06T02:48:19;101486.3477;;;;
44734;BME280;30462;52.446;-1.930;2022-08-06T02:49:24;101486.3477;;;;
44734;BME280;30462;52.446;-1.930;2022-08-06T02:50:19;101482.7969;;;;
44734;BME280;30462;52.446;-1.930;2022-08-06T02:51:23;101482.7266;;;;
44734;BME280;30462;52.446;-1.930;2022-08-06T02:52:19;101484.8672;;;;
44734;BME280;30462;52.446;-1.930;2022-08-06T02:53:23;101484.8672;;;;
44734;BME280;30462;52.446;-1.930;2022-08-06T02:54:19;101481.7578;;;;
44734;BME280;30462;52.446;-1.930;2022-08-06T02:55:19;101479.668;;;;
44734;BME280;30462;52.446;-1.930;2022-08-06T02:56:18;101485.3594;;;;
44734;BME280;30462;52.446;-1.930;2022-08-06T02:57:23;101486.7891;;;;
44734;BME280;30462;52.446;-1.930;2022-08-06T02:58:19;101487.7461;;;;
44734;BME280;30462;52.446;-1.930;2022-08-06T02:59:20;101491.5977;;;;
44734;BME280;30462;52.446;-1.930;2022-08-06T03:00:18;101490.8398;;;;
44734;BME280;30462;52.446;-1.930;2022-08-06T03:01:22;101494.5586;;;;
44734;BME280;30462;52.446;-1.930;2022-08-06T03:02:18;101491.2344;;;;
44734;BME280;30462;52.446;-1.930;2022-08-06T03:03:19;101497.9648;;;;
44734;BME280;30462;52.446;-1.930;2022-08-06T03:04:18;101494.1328;;;;
44734;BME280;30462;52.446;-1.930;2022-08-06T03:05:18;101499.5586;;;;
44734;BME280;30462;52.446;-1.930;2022-08-06T03:06:18;101497.207;;;;
44734;BME280;30462;52.446;-1.930;2022-08-06T03:07:17;101499.7383;;;;
44734;BME280;30462;52.446;-1.930;2022-08-06T03:08:20;101496.3828;;;;
44734;BME280;30462;52.446;-1.930;2022-08-06T03:09:18;101496.8594;;;;
44734;BME280;30462;52.446;-1.930;2022-08-06T03:10:18;101497.1875;;;;
44734;BME280;30462;52.446;-1.930;2022-08-06T03:11:17;101493.9453;;;;
44734;BME280;30462;52.446;-1.930;2022-08-06T03:12:18;101495.3633;;;;
44734;BME280;30462;52.446;-1.930;2022-08-06T03:13:18;101494.2227;;;;
44734;BME280;30462;52.446;-1.930;2022-08-06T03:14:18;101490.7695;;;;
44734;BME280;30462;52.446;-1.930;2022-08-06T03:15:18;101494.9492;;;;
44734;BME280;30462;52.446;-1.930;2022-08-06T03:16:18;101493.9961;;;;
44734;BME280;30462;52.446;-1.930;2022-08-06T03:17:18;101494.375;;;;
44734;BME280;30462;52.446;-1.930;2022-08-06T03:18:18;101496.957;;;;
44734;BME280;30462;52.446;-1.930;2022-08-06T03:19:18;101494.4063;;;;
44734;BME280;30462;52.446;-1.930;2022-08-06T03:20:18;101491.6406;;;;
44734;BME280;30462;52.446;-1.930;2022-08-06T03:21:19;101495.1406;;;;
44734;BME280;30462;52.446;-1.930;2022-08-06T03:22:18;101493.168;;;;
44734;BME280;30462;52.446;-1.930;2022-08-06T03:23:18;101491.5039;;;;
44734;BME280;30462;52.446;-1.930;2022-08-06T03:24:18;101493.7422;;;;
44734;BME280;30462;52.446;-1.930;2022-08-06T03:25:18;101493.5625;;;;
44734;BME280;30462;52.446;-1.930;2022-08-06T03:26:18;101492.4102;;;;
44734;BME280;30462;52.446;-1.930;2022-08-06T03:27:18;101491.6836;;;;
44734;BME280;30462;52.446;-1.930;2022-08-06T03:28:18;101490.3008;;;;
44734;BME280;30462;52.446;-1.930;2022-08-06T03:29:17;101497.2773;;;;
44734;BME280;30462;52.446;-1.930;2022-08-06T03:30:18;101495.3008;;;;
44734;BME280;30462;52.446;-1.930;2022-08-06T03:31:18;101502.5039;;;;
44734;BME280;30462;52.446;-1.930;2022-08-06T03:32:18;101500.875;;;;
44734;BME280;30462;52.446;-1.930;2022-08-06T03:33:21;101502.5;;;;
44734;BME280;30462;52.446;-1.930;2022-08-06T03:34:18;101502.5508;;;;
44734;BME280;30462;52.446;-1.930;2022-08-06T03:35:18;101502.0742;;;;
44734;BME280;30462;52.446;-1.930;2022-08-06T03:36:18;101504.0352;;;;
44734;BME280;30462;52.446;-1.930;2022-08-06T03:37:19;101503.9961;;;;
44734;BME280;30462;52.446;-1.930;2022-08-06T03:38:18;101503.9609;;;;
44734;BME280;30462;52.446;-1.930;2022-08-06T03:39:18;101502.7305;;;;
44734;BME280;30462;52.446;-1.930;2022-08-06T03:40:18;101499.6836;;;;
44734;BME280;30462;52.446;-1.930;2022-08-06T03:41:18;101500.0625;;;;
44734;BME280;30462;52.446;-1.930;2022-08-06T03:42:18;101499.9805;;;;
44734;BME280;30462;52.446;-1.930;2022-08-06T03:43:17;101502.1172;;;;
44734;BME280;30462;52.446;-1.930;2022-08-06T03:44:18;101502.0039;;;;
44734;BME280;30462;52.446;-1.930;2022-08-06T03:45:18;101500.457;;;;
44734;BME280;30462;52.446;-1.930;2022-08-06T03:46:21;101503.1211;;;;
44734;BME280;30462;52.446;-1.930;2022-08-06T03:47:23;101502.4375;;;;
44734;BME280;30462;52.446;-1.930;2022-08-06T03:48:21;101507.8359;;;;
44734;BME280;30462;52.446;-1.930;2022-08-06T03:49:23;101507.8359;;;;
44734;BME280;30462;52.446;-1.930;2022-08-06T03:50:21;101503.625;;;;
44734;BME280;30462;52.446;-1.930;2022-08-06T03:51:23;101504.2969;;;;
44734;BME280;30462;52.446;-1.930;2022-08-06T03:52:20;101504.1328;;;;
44734;BME280;30462;52.446;-1.930;2022-08-06T03:53:19;101508.6758;;;;
44734;BME280;30462;52.446;-1.930;2022-08-06T03:54:20;101510.2422;;;;
44734;BME280;30462;52.446;-1.930;2022-08-06T03:55:22;101508.5273;;;;
44734;BME280;30462;52.446;-1.930;2022-08-06T03:56:19;101508.5781;;;;
44734;BME280;30462;52.446;-1.930;2022-08-06T03:57:18;101510.1094;;;;
44734;BME280;30462;52.446;-1.930;2022-08-06T03:58:19;101508.1016;;;;
44734;BME280;30462;52.446;-1.930;2022-08-06T03:59:18;101508.2617;;;;
44734;BME280;30462;52.446;-1.930;2022-08-06T04:00:19;101509.7578;;;;
44734;BME280;30462;52.446;-1.930;2022-08-06T04:01:20;101507.9688;;;;
44734;BME280;30462;52.446;-1.930;2022-08-06T04:02:18;101509.4805;;;;
44734;BME280;30462;52.446;-1.930;2022-08-06T04:03:18;101510.7109;;;;
44734;BME280;30462;52.446;-1.930;2022-08-06T04:04:18;101507.4219;;;;
44734;BME280;30462;52.446;-1.930;2022-08-06T04:05:18;101504.0781;;;;
44734;BME280;30462;52.446;-1.930;2022-08-06T04:06:18;101510.8164;;;;
44734;BME280;30462;52.446;-1.930;2022-08-06T04:07:18;101511.5234;;;;
44734;BME280;30462;52.446;-1.930;2022-08-06T04:08:18;101514.1367;;;;
44734;BME280;30462;52.446;-1.930;2022-08-06T04:09:18;101507.9766;;;;
44734;BME280;30462;52.446;-1.930;2022-08-06T04:10:18;101509.8672;;;;
44734;BME280;30462;52.446;-1.930;2022-08-06T04:11:18;101510.1641;;;;
44734;BME280;30462;52.446;-1.930;2022-08-06T04:12:18;101508.2891;;;;
44734;BME280;30462;52.446;-1.930;2022-08-06T04:13:22;101508.2383;;;;
44734;BME280;30462;52.446;-1.930;2022-08-06T04:14:18;101506.9844;;;;
44734;BME280;30462;52.446;-1.930;2022-08-06T04:15:18;101507.4219;;;;
44734;BME280;30462;52.446;-1.930;2022-08-06T04:16:18;101507.5234;;;;
44734;BME280;30462;52.446;-1.930;2022-08-06T04:17:18;101507.5117;;;;
44734;BME280;30462;52.446;-1.930;2022-08-06T04:18:19;101502.3594;;;;
44734;BME280;30462;52.446;-1.930;2022-08-06T04:19:18;101507.6484;;;;
44734;BME280;30462;52.446;-1.930;2022-08-06T04:20:18;101505.5898;;;;
44734;BME280;30462;52.446;-1.930;2022-08-06T04:21:19;101509.9492;;;;
44734;BME280;30462;52.446;-1.930;2022-08-06T04:22:19;101507.6094;;;;
44734;BME280;30462;52.446;-1.930;2022-08-06T04:23:18;101508.9023;;;;
44734;BME280;30462;52.446;-1.930;2022-08-06T04:24:18;101510.7695;;;;
44734;BME280;30462;52.446;-1.930;2022-08-06T04:25:18;101512.2305;;;;
44734;BME280;30462;52.446;-1.930;2022-08-06T04:26:18;101513.6602;;;;
44734;BME280;30462;52.446;-1.930;2022-08-06T04:27:18;101515.1367;;;;
44734;BME280;30462;52.446;-1.930;2022-08-06T04:28:18;101516.5469;;;;
44734;BME280;30462;52.446;-1.930;2022-08-06T04:29:19;101517.3047;;;;
44734;BME280;30462;52.446;-1.930;2022-08-06T04:30:18;101518.3672;;;;
44734;BME280;30462;52.446;-1.930;2022-08-06T04:31:19;101521.9688;;;;
44734;BME280;30462;52.446;-1.930;2022-08-06T04:32:18;101523.1016;;;;
44734;BME280;30462;52.446;-1.930;2022-08-06T04:33:18;101524.2969;;;;
44734;BME280;30462;52.446;-1.930;2022-08-06T04:34:20;101528.6211;;;;
44734;BME280;30462;52.446;-1.930;2022-08-06T04:35:18;101528.8398;;;;
44734;BME280;30462;52.446;-1.930;2022-08-06T04:36:18;101532.3438;;;;
44734;BME280;30462;52.446;-1.930;2022-08-06T04:37:18;101530.2031;;;;
44734;BME280;30462;52.446;-1.930;2022-08-06T04:38:20;101532.4531;;;;
44734;BME280;30462;52.446;-1.930;2022-08-06T04:39:18;101530.9219;;;;
44734;BME280;30462;52.446;-1.930;2022-08-06T04:40:18;101526.7031;;;;
44734;BME280;30462;52.446;-1.930;2022-08-06T04:41:17;101526.6602;;;;
44734;BME280;30462;52.446;-1.930;2022-08-06T04:42:18;101530.0234;;;;
44734;BME280;30462;52.446;-1.930;2022-08-06T04:43:18;101529.3906;;;;
44734;BME280;30462;52.446;-1.930;2022-08-06T04:44:18;101532.0664;;;;
44734;BME280;30462;52.446;-1.930;2022-08-06T04:45:18;101533.543;;;;
44734;BME280;30462;52.446;-1.930;2022-08-06T04:46:18;101531.3398;;;;
44734;BME280;30462;52.446;-1.930;2022-08-06T04:47:18;101532.5977;;;;
44734;BME280;30462;52.446;-1.930;2022-08-06T04:48:21;101534.3867;;;;
44734;BME280;30462;52.446;-1.930;2022-08-06T04:49:18;101532.7383;;;;
44734;BME280;30462;52.446;-1.930;2022-08-06T04:50:18;101534.9922;;;;
44734;BME280;30462;52.446;-1.930;2022-08-06T04:51:18;101537.457;;;;
44734;BME280;30462;52.446;-1.930;2022-08-06T04:52:22;101539.3984;;;;
44734;BME280;30462;52.446;-1.930;2022-08-06T04:53:22;101539.4648;;;;
44734;BME280;30462;52.446;-1.930;2022-08-06T04:54:18;101538.9258;;;;
44734;BME280;30462;52.446;-1.930;2022-08-06T04:55:18;101541.3242;;;;
44734;BME280;30462;52.446;-1.930;2022-08-06T04:56:18;101539.6602;;;;
44734;BME280;30462;52.446;-1.930;2022-08-06T04:57:18;101540.8125;;;;
44734;BME280;30462;52.446;-1.930;2022-08-06T04:58:19;101545.1367;;;;
44734;BME280;30462;52.446;-1.930;2022-08-06T04:59:18;101544.2656;;;;
44734;BME280;30462;52.446;-1.930;2022-08-06T05:00:18;101542.3594;;;;
44734;BME280;30462;52.446;-1.930;2022-08-06T05:01:18;101547.918;;;;
44734;BME280;30462;52.446;-1.930;2022-08-06T05:02:19;101544.7227;;;;
44734;BME280;30462;52.446;-1.930;2022-08-06T05:03:18;101547.543;;;;
44734;BME280;30462;52.446;-1.930;2022-08-06T05:04:18;101548.3164;;;;
44734;BME280;30462;52.446;-1.930;2022-08-06T05:05:18;101547.4922;;;;
44734;BME280;30462;52.446;-1.930;2022-08-06T05:06:21;101547.918;;;;
44734;BME280;30462;52.446;-1.930;2022-08-06T05:07:21;101545.8398;;;;
44734;BME280;30462;52.446;-1.930;2022-08-06T05:08:18;101549.375;;;;
44734;BME280;30462;52.446;-1.930;2022-08-06T05:09:19;101553.2148;;;;
44734;BME280;30462;52.446;-1.930;2022-08-06T05:10:18;101549.1523;;;;
44734;BME280;30462;52.446;-1.930;2022-08-06T05:11:21;101549.0078;;;;
44734;BME280;30462;52.446;-1.930;2022-08-06T05:12:19;101547.9922;;;;
44734;BME280;30462;52.446;-1.930;2022-08-06T05:13:19;101552.6211;;;;
44734;BME280;30462;52.446;-1.930;2022-08-06T05:14:20;101547.8945;;;;
44734;BME280;30462;52.446;-1.930;2022-08-06T05:15:21;101551.6328;;;;
44734;BME280;30462;52.446;-1.930;2022-08-06T05:16:17;101551.7109;;;;
44734;BME280;30462;52.446;-1.930;2022-08-06T05:17:19;101551.3203;;;;
44734;BME280;30462;52.446;-1.930;2022-08-06T05:18:21;101544.0117;;;;
44734;BME280;30462;52.446;-1.930;2022-08-06T05:19:24;101548.9141;;;;
44734;BME280;30462;52.446;-1.930;2022-08-06T05:20:23;101548.9141;;;;
44734;BME280;30462;52.446;-1.930;2022-08-06T05:21:21;101547.4453;;;;
44734;BME280;30462;52.446;-1.930;2022-08-06T05:22:18;101550.2773;;;;
44734;BME280;30462;52.446;-1.930;2022-08-06T05:23:22;101550.75;;;;
44734;BME280;30462;52.446;-1.930;2022-08-06T05:24:18;101551.1211;;;;
44734;BME280;30462;52.446;-1.930;2022-08-06T05:25:18;101547.6719;;;;
44734;BME280;30462;52.446;-1.930;2022-08-06T05:26:18;101548.3984;;;;
44734;BME280;30462;52.446;-1.930;2022-08-06T05:27:17;101548.4414;;;;
44734;BME280;30462;52.446;-1.930;2022-08-06T05:28:18;101549.0781;;;;
44734;BME280;30462;52.446;-1.930;2022-08-06T05:29:18;101543.3281;;;;
44734;BME280;30462;52.446;-1.930;2022-08-06T05:30:18;101544.207;;;;
44734;BME280;30462;52.446;-1.930;2022-08-06T05:32:17;101544.5586;;;;
44734;BME280;30462;52.446;-1.930;2022-08-06T05:34:19;101544.9023;;;;
44734;BME280;30462;52.446;-1.930;2022-08-06T05:35:18;101542.9141;;;;
44734;BME280;30462;52.446;-1.930;2022-08-06T05:36:19;101543.0898;;;;
44734;BME280;30462;52.446;-1.930;2022-08-06T05:37:18;101544.6445;;;;
44734;BME280;30462;52.446;-1.930;2022-08-06T05:38:18;101548.9414;;;;
44734;BME280;30462;52.446;-1.930;2022-08-06T05:39:18;101547.6953;;;;
44734;BME280;30462;52.446;-1.930;2022-08-06T05:40:18;101547.293;;;;
44734;BME280;30462;52.446;-1.930;2022-08-06T05:41:18;101547.6758;;;;
44734;BME280;30462;52.446;-1.930;2022-08-06T05:42:18;101550.5742;;;;
44734;BME280;30462;52.446;-1.930;2022-08-06T05:43:18;101550.1289;;;;
44734;BME280;30462;52.446;-1.930;2022-08-06T05:44:18;101552.6875;;;;
44734;BME280;30462;52.446;-1.930;2022-08-06T05:45:18;101554.0234;;;;
44734;BME280;30462;52.446;-1.930;2022-08-06T05:46:18;101553.7617;;;;
44734;BME280;30462;52.446;-1.930;2022-08-06T05:47:19;101554.8945;;;;
44734;BME280;30462;52.446;-1.930;2022-08-06T05:48:18;101551.6875;;;;
44734;BME280;30462;52.446;-1.930;2022-08-06T05:49:21;101553.1719;;;;
44734;BME280;30462;52.446;-1.930;2022-08-06T05:50:18;101552.7695;;;;
44734;BME280;30462;52.446;-1.930;2022-08-06T05:51:19;101553.7969;;;;